createdAt,value
2022-11-27T00:02:07.536Z,102478.69
2022-11-27T00:09:12.429Z,102489.41
2022-11-27T00:16:14.374Z,102476.00
2022-11-27T00:23:16.001Z,102467.88
2022-11-27T00:30:17.786Z,102469.81
2022-11-27T00:37:19.460Z,102472.53
2022-11-27T00:44:21.038Z,102470.81
2022-11-27T00:51:22.903Z,102471.88
2022-11-27T00:58:24.791Z,102461.06
2022-11-27T01:05:26.388Z,102466.56
2022-11-27T01:12:27.974Z,102461.97
2022-11-27T01:19:29.551Z,102456.53
2022-11-27T01:26:31.137Z,102445.88
2022-11-27T01:33:32.743Z,102448.56
2022-11-27T01:40:34.310Z,102444.88
2022-11-27T01:47:45.878Z,102433.13
2022-11-27T01:55:06.494Z,102408.97
2022-11-27T02:02:07.934Z,102404.41
2022-11-27T02:09:09.582Z,102412.63
2022-11-27T02:16:33.022Z,102397.38
2022-11-27T02:23:56.579Z,102389.31
2022-11-27T02:31:09.793Z,102398.56
2022-11-27T02:38:21.135Z,102399.72
2022-11-27T02:45:33.913Z,102397.97
2022-11-27T02:52:35.462Z,102399.78
2022-11-27T02:59:40.334Z,102397.47
2022-11-27T03:06:50.248Z,102393.00
2022-11-27T03:13:54.465Z,102381.84
2022-11-27T03:21:02.640Z,102387.03
2022-11-27T03:28:06.071Z,102392.44
2022-11-27T03:35:08.982Z,102387.16
2022-11-27T03:42:27.644Z,102389.84
2022-11-27T03:49:47.428Z,102387.25
2022-11-27T03:56:56.158Z,102383.56
2022-11-27T04:03:57.816Z,102382.03
2022-11-27T04:10:59.390Z,102383.75
2022-11-27T04:18:00.999Z,102389.16
2022-11-27T04:25:02.591Z,102389.13
2022-11-27T04:32:04.733Z,102383.22
2022-11-27T04:39:06.358Z,102390.53
2022-11-27T04:46:08.003Z,102394.16
2022-11-27T04:53:09.612Z,102390.88
2022-11-27T05:00:11.857Z,102390.28
2022-11-27T05:07:13.456Z,102393.13
2022-11-27T05:14:15.116Z,102381.66
2022-11-27T05:21:16.693Z,102389.03
2022-11-27T05:28:21.162Z,102396.50
2022-11-27T05:35:26.741Z,102403.00
2022-11-27T05:42:28.284Z,102399.03
2022-11-27T05:49:29.882Z,102400.84
2022-11-27T05:56:31.473Z,102393.84
2022-11-27T06:03:33.296Z,102392.22
2022-11-27T06:10:34.898Z,102383.53
2022-11-27T06:17:36.454Z,102366.91
2022-11-27T06:24:38.174Z,102366.81
2022-11-27T06:31:40.009Z,102362.41
2022-11-27T06:38:41.756Z,102370.56
2022-11-27T06:45:43.335Z,102361.63
2022-11-27T06:52:45.012Z,102367.19
2022-11-27T06:59:46.554Z,102377.19
2022-11-27T07:06:48.207Z,102373.78
2022-11-27T07:13:50.178Z,102372.91
2022-11-27T07:20:56.286Z,102347.06
2022-11-27T07:27:58.506Z,102353.56
2022-11-27T07:35:00.091Z,102353.59
2022-11-27T07:42:23.070Z,102345.72
2022-11-27T07:49:23.191Z,102344.88
2022-11-27T07:56:24.782Z,102331.53
2022-11-27T08:03:26.378Z,102335.94
2022-11-27T08:10:27.924Z,102334.22
2022-11-27T08:17:29.481Z,102329.72
2022-11-27T08:24:31.098Z,102315.47
2022-11-27T08:31:33.161Z,102326.97
2022-11-27T08:38:34.855Z,102327.72
2022-11-27T08:45:39.123Z,102317.94
2022-11-27T08:52:40.774Z,102323.28
2022-11-27T08:59:42.319Z,102326.91
2022-11-27T09:06:43.922Z,102320.66
2022-11-27T09:13:45.809Z,102326.94
2022-11-27T09:20:55.476Z,102326.75
2022-11-27T09:27:57.201Z,102307.13
2022-11-27T09:34:58.879Z,102307.97
2022-11-27T09:42:01.991Z,102296.28
2022-11-27T09:49:06.690Z,102291.66
2022-11-27T09:56:09.839Z,102283.56
2022-11-27T10:03:13.786Z,102270.88
2022-11-27T10:10:38.358Z,102267.13
2022-11-27T10:18:01.551Z,102267.19
2022-11-27T10:25:14.286Z,102265.28
2022-11-27T10:32:46.981Z,102265.75
2022-11-27T10:39:42.927Z,102251.25
2022-11-27T10:46:44.492Z,102255.47
2022-11-27T10:53:47.194Z,102243.03
2022-11-27T11:00:48.864Z,102237.44
2022-11-27T11:08:17.708Z,102234.28
2022-11-27T11:15:19.394Z,102223.41
2022-11-27T11:22:20.971Z,102217.88
2022-11-27T11:29:45.850Z,102230.75
2022-11-27T11:36:57.960Z,102218.56
2022-11-27T11:44:01.292Z,102214.84
2022-11-27T11:51:17.582Z,102209.28
2022-11-27T11:59:00.739Z,102212.84
2022-11-27T12:06:08.317Z,102204.63
2022-11-27T12:13:42.046Z,102190.22
2022-11-27T12:20:57.520Z,102177.72
2022-11-27T12:27:58.962Z,102158.34
2022-11-27T12:35:28.717Z,102144.31
2022-11-27T12:42:36.215Z,102141.88
2022-11-27T12:49:45.597Z,102119.91
2022-11-27T12:56:49.134Z,102112.03
2022-11-27T13:04:24.528Z,102110.13
2022-11-27T13:11:33.578Z,102104.88
2022-11-27T13:18:38.023Z,102103.09
2022-11-27T13:25:45.570Z,102085.91
2022-11-27T13:32:58.114Z,102073.59
2022-11-27T13:40:04.776Z,102070.34
2022-11-27T13:47:09.711Z,102061.31
2022-11-27T13:54:17.007Z,102040.84
2022-11-27T14:01:22.369Z,102041.81
2022-11-27T14:08:31.427Z,102036.34
2022-11-27T14:15:36.893Z,102037.22
2022-11-27T14:23:10.634Z,102021.28
2022-11-27T14:30:31.950Z,102028.22
2022-11-27T14:37:33.516Z,102032.06
2022-11-27T14:44:35.154Z,102029.47
2022-11-27T14:51:37.318Z,102022.50
2022-11-27T14:58:39.120Z,102027.00
2022-11-27T15:05:40.696Z,102029.00
2022-11-27T15:12:45.420Z,102011.31
2022-11-27T15:19:47.052Z,102005.13
2022-11-27T15:26:48.599Z,101990.94
2022-11-27T15:33:57.302Z,101985.53
2022-11-27T15:41:00.624Z,101979.38
2022-11-27T15:48:02.332Z,101989.25
2022-11-27T15:55:05.328Z,101983.84
2022-11-27T16:02:07.073Z,101968.16
2022-11-27T16:09:08.705Z,101965.50
2022-11-27T16:16:10.377Z,101956.81
2022-11-27T16:23:11.997Z,101956.97
2022-11-27T16:30:13.879Z,101945.34
2022-11-27T16:37:18.375Z,101948.22
2022-11-27T16:44:20.333Z,101933.16
2022-11-27T16:51:26.342Z,101927.88
2022-11-27T16:58:28.081Z,101925.09
2022-11-27T17:05:29.721Z,101922.56
2022-11-27T17:12:32.458Z,101918.34
2022-11-27T17:19:34.207Z,101918.22
2022-11-27T17:26:42.100Z,101912.41
2022-11-27T17:33:43.807Z,101887.56
2022-11-27T17:40:45.412Z,101879.72
2022-11-27T17:47:47.005Z,101872.53
2022-11-27T17:54:48.603Z,101865.34
2022-11-27T18:01:53.144Z,101853.84
2022-11-27T18:08:57.296Z,101846.69
2022-11-27T18:16:13.169Z,101837.13
2022-11-27T18:23:15.516Z,101827.50
2022-11-27T18:30:17.169Z,101818.56
2022-11-27T18:37:18.745Z,101820.34
2022-11-27T18:44:20.577Z,101816.00
2022-11-27T18:51:23.714Z,101821.41
2022-11-27T18:58:26.340Z,101822.41
2022-11-27T19:05:27.950Z,101828.72
2022-11-27T19:12:29.610Z,101824.44
2022-11-27T19:26:54.791Z,101810.34
2022-11-27T19:33:58.924Z,101807.00
2022-11-27T19:41:00.677Z,101794.59
2022-11-27T19:48:02.498Z,101788.47
2022-11-27T19:55:04.807Z,101772.66
2022-11-27T20:02:12.305Z,101785.06
2022-11-27T20:09:13.980Z,101784.84
2022-11-27T20:16:17.578Z,101782.16
2022-11-27T20:23:19.624Z,101768.09
2022-11-27T20:30:21.230Z,101779.88
2022-11-27T20:37:22.976Z,101781.84
2022-11-27T20:44:24.572Z,101779.81
2022-11-27T20:51:30.061Z,101785.09
2022-11-27T20:58:32.277Z,101774.34
2022-11-27T21:05:33.998Z,101768.25
2022-11-27T21:12:36.015Z,101746.25
2022-11-27T21:19:37.607Z,101728.31
2022-11-27T21:26:40.110Z,101716.00
2022-11-27T21:33:42.221Z,101703.47
2022-11-27T21:40:43.851Z,101695.59
2022-11-27T21:47:45.477Z,101694.59
2022-11-27T21:54:47.119Z,101685.88
2022-11-27T22:01:52.381Z,101690.38
2022-11-27T22:08:56.065Z,101690.44
2022-11-27T22:15:57.866Z,101695.78
2022-11-27T22:22:59.491Z,101689.63
2022-11-27T22:30:01.092Z,101693.25
2022-11-27T22:37:05.812Z,101687.88
2022-11-27T22:44:11.730Z,101687.94
2022-11-27T22:51:13.521Z,101679.03
2022-11-27T22:58:15.155Z,101677.41
2022-11-27T23:05:16.762Z,101668.41
2022-11-27T23:12:18.363Z,101665.91
2022-11-27T23:19:21.024Z,101656.03
2022-11-27T23:26:23.252Z,101651.81
2022-11-27T23:33:24.815Z,101645.53
2022-11-27T23:40:26.455Z,101644.75
2022-11-27T23:47:28.096Z,101629.47
2022-11-27T23:54:29.715Z,101632.19
